createdAt,value
2022-09-29T00:00:54.541Z,10.20
2022-09-29T00:03:23.134Z,10.20
2022-09-29T00:05:51.793Z,10.20
2022-09-29T00:08:20.688Z,10.10
2022-09-29T00:10:50.248Z,10.10
2022-09-29T00:13:18.773Z,10.10
2022-09-29T00:15:55.509Z,10.20
2022-09-29T00:18:23.499Z,10.10
2022-09-29T00:20:57.644Z,10.10
2022-09-29T00:23:25.761Z,10.10
2022-09-29T00:26:01.693Z,10.00
2022-09-29T00:28:29.841Z,10.00
2022-09-29T00:30:59.003Z,10.00
2022-09-29T00:33:27.329Z,10.10
2022-09-29T00:35:59.651Z,10.10
2022-09-29T00:38:28.352Z,10.20
2022-09-29T00:40:56.339Z,10.10
2022-09-29T00:43:27.063Z,10.10
2022-09-29T00:45:55.938Z,10.00
2022-09-29T00:48:28.610Z,10.00
2022-09-29T00:51:00.784Z,10.00
2022-09-29T00:53:29.017Z,10.00
2022-09-29T00:55:58.112Z,10.00
2022-09-29T00:58:30.356Z,9.90
2022-09-29T01:00:58.379Z,9.90
2022-09-29T01:03:31.351Z,10.00
2022-09-29T01:06:01.634Z,10.00
2022-09-29T01:08:32.756Z,10.00
2022-09-29T01:11:02.193Z,10.00
2022-09-29T01:13:33.032Z,9.90
2022-09-29T01:16:01.118Z,10.00
2022-09-29T01:18:29.428Z,10.10
2022-09-29T01:21:02.942Z,10.10
2022-09-29T01:23:42.553Z,10.20
2022-09-29T01:26:25.173Z,10.20
2022-09-29T01:29:05.534Z,10.20
2022-09-29T01:31:39.210Z,10.30
2022-09-29T01:34:10.382Z,10.30
2022-09-29T01:36:42.494Z,10.30
2022-09-29T01:39:15.625Z,10.20
2022-09-29T01:41:45.968Z,10.20
2022-09-29T01:44:21.010Z,10.20
2022-09-29T01:46:53.939Z,10.20
2022-09-29T01:49:22.784Z,10.20
2022-09-29T01:51:53.869Z,10.20
2022-09-29T01:54:24.129Z,10.20
2022-09-29T01:56:53.970Z,10.20
2022-09-29T01:59:24.762Z,10.20
2022-09-29T02:02:00.095Z,10.30
2022-09-29T02:04:30.764Z,10.20
2022-09-29T02:07:01.549Z,10.30
2022-09-29T02:09:31.225Z,10.30
2022-09-29T02:12:00.166Z,10.30
2022-09-29T02:14:30.225Z,10.30
2022-09-29T02:17:03.282Z,10.30
2022-09-29T02:19:32.996Z,10.30
2022-09-29T02:22:03.750Z,10.30
2022-09-29T02:24:32.218Z,10.30
2022-09-29T02:27:00.432Z,10.30
2022-09-29T02:29:28.624Z,10.30
2022-09-29T02:31:57.433Z,10.30
2022-09-29T02:34:26.864Z,10.30
2022-09-29T02:36:58.828Z,10.30
2022-09-29T02:39:33.425Z,10.30
2022-09-29T02:42:05.352Z,10.30
2022-09-29T02:44:38.874Z,10.30
2022-09-29T02:47:16.283Z,10.30
2022-09-29T02:49:52.453Z,10.30
2022-09-29T02:52:24.700Z,10.30
2022-09-29T02:54:57.985Z,10.30
2022-09-29T02:57:30.177Z,10.20
2022-09-29T03:00:05.802Z,10.20
2022-09-29T03:02:33.781Z,10.20
2022-09-29T03:05:03.558Z,10.20
2022-09-29T03:07:31.744Z,10.10
2022-09-29T03:09:59.768Z,10.10
2022-09-29T03:12:27.921Z,10.10
2022-09-29T03:14:55.862Z,10.10
2022-09-29T03:17:23.922Z,10.10
2022-09-29T03:19:51.935Z,10.10
2022-09-29T03:22:21.237Z,10.10
2022-09-29T03:24:49.335Z,10.10
2022-09-29T03:27:17.390Z,10.10
2022-09-29T03:29:45.389Z,10.10
2022-09-29T03:32:13.401Z,10.10
2022-09-29T03:34:41.525Z,10.10
2022-09-29T03:37:09.666Z,10.10
2022-09-29T03:39:39.021Z,10.10
2022-09-29T03:42:07.105Z,10.10
2022-09-29T03:44:35.061Z,10.10
2022-09-29T03:47:05.835Z,10.10
2022-09-29T03:49:33.835Z,10.10
2022-09-29T03:52:02.222Z,10.10
2022-09-29T03:54:30.143Z,10.10
2022-09-29T03:56:59.532Z,10.10
2022-09-29T03:59:27.562Z,10.10
2022-09-29T04:01:56.487Z,10.00
2022-09-29T04:04:24.528Z,10.00
2022-09-29T04:06:52.523Z,10.00
2022-09-29T04:09:22.524Z,10.00
2022-09-29T04:11:50.522Z,9.90
2022-09-29T04:14:20.149Z,9.80
2022-09-29T04:16:48.202Z,9.80
2022-09-29T04:19:16.305Z,9.80
2022-09-29T04:21:44.241Z,9.80
2022-09-29T04:24:12.354Z,9.80
2022-09-29T04:26:43.010Z,9.80
2022-09-29T04:29:12.129Z,9.80
2022-09-29T04:31:41.512Z,9.90
2022-09-29T04:34:09.538Z,9.80
2022-09-29T04:36:37.506Z,9.90
2022-09-29T04:39:06.052Z,9.90
2022-09-29T04:41:36.140Z,9.90
2022-09-29T04:44:04.154Z,9.90
2022-09-29T04:46:32.082Z,9.90
2022-09-29T04:49:01.386Z,9.90
2022-09-29T04:51:29.461Z,9.90
2022-09-29T04:54:01.420Z,9.80
2022-09-29T04:56:31.734Z,9.90
2022-09-29T04:59:00.215Z,9.80
2022-09-29T05:01:28.793Z,9.80
2022-09-29T05:04:00.025Z,9.80
2022-09-29T05:06:29.789Z,9.70
2022-09-29T05:08:57.856Z,9.70
2022-09-29T05:11:27.938Z,9.80
2022-09-29T05:13:58.987Z,9.80
2022-09-29T05:16:27.080Z,9.80
2022-09-29T05:18:55.181Z,9.80
2022-09-29T05:21:28.144Z,9.90
2022-09-29T05:23:58.543Z,9.90
2022-09-29T05:26:26.730Z,9.90
2022-09-29T05:28:54.990Z,9.90
2022-09-29T05:31:23.191Z,9.90
2022-09-29T05:33:52.088Z,9.90
2022-09-29T05:36:20.270Z,9.90
2022-09-29T05:38:48.924Z,9.90
2022-09-29T05:41:24.459Z,9.90
2022-09-29T05:43:53.855Z,9.90
2022-09-29T05:46:22.301Z,9.90
2022-09-29T05:48:51.504Z,9.90
2022-09-29T05:51:23.090Z,9.90
2022-09-29T05:53:53.054Z,9.80
2022-09-29T05:56:23.671Z,9.80
2022-09-29T05:58:52.265Z,9.80
2022-09-29T06:01:21.587Z,9.90
2022-09-29T06:03:51.161Z,9.90
2022-09-29T06:06:21.173Z,10.00
2022-09-29T06:08:49.681Z,10.00
2022-09-29T06:11:18.654Z,10.00
2022-09-29T06:13:48.967Z,10.00
2022-09-29T06:16:17.474Z,10.00
2022-09-29T06:18:45.542Z,10.00
2022-09-29T06:21:14.172Z,10.00
2022-09-29T06:23:42.516Z,10.00
2022-09-29T06:26:11.685Z,10.00
2022-09-29T06:28:40.175Z,10.00
2022-09-29T06:31:10.461Z,10.00
2022-09-29T06:33:41.544Z,10.10
2022-09-29T06:36:30.887Z,10.10
2022-09-29T06:38:58.980Z,10.10
2022-09-29T06:41:30.147Z,10.10
2022-09-29T06:43:58.245Z,10.10
2022-09-29T06:46:28.258Z,10.10
2022-09-29T06:48:59.872Z,10.10
2022-09-29T06:51:39.568Z,10.10
2022-09-29T06:54:12.564Z,10.10
2022-09-29T06:56:41.571Z,10.10
2022-09-29T06:59:10.047Z,10.20
2022-09-29T07:01:39.492Z,10.20
2022-09-29T07:04:08.145Z,10.20
2022-09-29T07:06:36.307Z,10.20
2022-09-29T07:09:04.654Z,10.20
2022-09-29T07:11:32.700Z,10.30
2022-09-29T07:14:00.783Z,10.30
2022-09-29T07:16:28.877Z,10.30
2022-09-29T07:18:58.520Z,10.30
2022-09-29T07:21:26.558Z,10.30
2022-09-29T07:23:57.632Z,10.30
2022-09-29T07:26:28.068Z,10.20
2022-09-29T07:28:56.194Z,10.20
2022-09-29T07:31:24.364Z,10.30
2022-09-29T07:33:55.741Z,10.30
2022-09-29T07:36:25.430Z,10.30
2022-09-29T07:38:53.909Z,10.30
2022-09-29T07:41:25.378Z,10.40
2022-09-29T07:43:54.296Z,10.40
2022-09-29T07:46:22.988Z,10.40
2022-09-29T07:48:51.062Z,10.40
2022-09-29T07:51:20.420Z,10.40
2022-09-29T07:53:49.847Z,10.40
2022-09-29T07:56:18.895Z,10.40
2022-09-29T07:58:47.393Z,10.40
2022-09-29T08:01:16.203Z,10.30
2022-09-29T08:03:46.695Z,10.30
2022-09-29T08:06:16.897Z,10.30
2022-09-29T08:08:59.547Z,10.30
2022-09-29T08:11:33.407Z,10.20
2022-09-29T08:14:02.157Z,10.20
2022-09-29T08:16:30.358Z,10.20
2022-09-29T08:19:00.757Z,10.10
2022-09-29T08:21:29.809Z,10.10
2022-09-29T08:23:57.898Z,10.20
2022-09-29T08:26:39.920Z,10.30
2022-09-29T08:29:15.947Z,10.30
2022-09-29T08:31:44.769Z,10.30
2022-09-29T08:34:15.685Z,10.40
2022-09-29T08:36:44.024Z,10.50
2022-09-29T08:39:13.004Z,10.40
2022-09-29T08:41:48.083Z,10.50
2022-09-29T08:44:34.194Z,10.60
2022-09-29T08:47:11.045Z,10.50
2022-09-29T08:49:41.766Z,10.50
2022-09-29T08:52:16.829Z,10.50
2022-09-29T08:54:49.107Z,10.60
2022-09-29T08:57:19.309Z,10.50
2022-09-29T08:59:53.668Z,10.40
2022-09-29T09:02:45.545Z,10.50
2022-09-29T09:05:35.373Z,10.60
2022-09-29T09:08:05.155Z,10.60
2022-09-29T09:10:36.491Z,10.60
2022-09-29T09:24:27.277Z,10.50
2022-09-29T09:26:55.680Z,10.50
2022-09-29T09:29:26.599Z,10.50
2022-09-29T09:31:58.066Z,10.60
2022-09-29T09:34:42.004Z,10.60
2022-09-29T09:37:17.647Z,10.70
2022-09-29T09:39:49.289Z,10.70
2022-09-29T09:42:19.705Z,10.60
2022-09-29T09:44:49.544Z,10.60
2022-09-29T09:47:24.495Z,10.60
2022-09-29T09:49:54.442Z,10.60
2022-09-29T09:52:23.941Z,10.50
2022-09-29T09:54:53.986Z,10.50
2022-09-29T09:57:34.032Z,10.50
2022-09-29T10:00:06.759Z,10.50
2022-09-29T10:02:34.879Z,10.60
2022-09-29T10:05:07.382Z,10.60
2022-09-29T10:07:40.375Z,10.70
2022-09-29T10:10:16.152Z,10.50
2022-09-29T10:12:45.123Z,10.30
2022-09-29T10:15:19.170Z,10.30
2022-09-29T10:17:49.810Z,10.40
2022-09-29T10:20:30.041Z,10.40
2022-09-29T10:23:19.570Z,10.30
2022-09-29T10:25:56.866Z,10.30
2022-09-29T10:28:25.853Z,10.50
2022-09-29T10:30:55.792Z,10.70
2022-09-29T10:33:25.871Z,10.90
2022-09-29T10:36:05.413Z,10.70
2022-09-29T10:38:33.715Z,10.40
2022-09-29T10:41:05.408Z,10.40
2022-09-29T10:43:36.449Z,10.70
2022-09-29T10:46:04.964Z,11.10
2022-09-29T10:48:33.416Z,11.10
2022-09-29T10:51:02.843Z,10.80
2022-09-29T10:53:35.237Z,11.00
2022-09-29T10:56:09.837Z,10.90
2022-09-29T10:58:57.659Z,11.00
2022-09-29T11:01:31.651Z,11.00
2022-09-29T11:04:03.585Z,10.80
2022-09-29T11:06:32.754Z,11.00
2022-09-29T11:09:02.148Z,11.20
2022-09-29T11:11:32.998Z,11.40
2022-09-29T11:14:01.188Z,11.50
2022-09-29T11:16:32.196Z,11.90
2022-09-29T11:19:02.535Z,11.60
2022-09-29T11:21:43.358Z,11.30
2022-09-29T11:24:15.964Z,11.20
2022-09-29T11:26:48.269Z,11.40
2022-09-29T11:29:30.242Z,11.50
2022-09-29T11:32:03.465Z,11.70
2022-09-29T11:34:37.689Z,11.70
2022-09-29T11:37:08.697Z,11.80
2022-09-29T11:39:51.050Z,11.90
2022-09-29T11:42:29.683Z,11.40
2022-09-29T11:44:59.934Z,11.20
2022-09-29T11:47:45.611Z,11.30
2022-09-29T11:50:20.217Z,11.30
2022-09-29T11:52:56.610Z,11.30
2022-09-29T11:55:31.283Z,11.50
2022-09-29T11:58:05.553Z,11.70
2022-09-29T12:00:40.181Z,11.50
2022-09-29T12:03:24.474Z,11.70
2022-09-29T12:05:57.775Z,11.70
2022-09-29T12:08:34.377Z,11.50
2022-09-29T12:11:23.848Z,11.30
2022-09-29T12:13:56.995Z,11.30
2022-09-29T12:16:26.891Z,11.60
2022-09-29T12:18:57.798Z,11.90
2022-09-29T12:21:31.339Z,11.50
2022-09-29T12:24:00.542Z,11.20
2022-09-29T12:26:29.008Z,11.10
2022-09-29T12:29:01.217Z,11.10
2022-09-29T12:31:33.749Z,11.10
2022-09-29T12:34:02.988Z,11.20
2022-09-29T12:36:50.506Z,11.00
2022-09-29T12:39:25.819Z,11.10
2022-09-29T12:41:55.264Z,11.00
2022-09-29T12:44:30.246Z,11.20
2022-09-29T12:47:02.637Z,11.50
2022-09-29T12:49:32.683Z,11.70
2022-09-29T12:52:03.099Z,11.80
2022-09-29T12:54:34.973Z,11.90
2022-09-29T12:57:04.897Z,11.80
2022-09-29T12:59:38.337Z,11.80
2022-09-29T13:02:16.688Z,11.60
2022-09-29T13:04:54.962Z,11.40
2022-09-29T13:07:43.290Z,11.40
2022-09-29T13:10:35.689Z,11.30
2022-09-29T13:13:19.130Z,11.30
2022-09-29T13:15:53.330Z,11.50
2022-09-29T13:18:28.810Z,11.40
2022-09-29T13:32:26.894Z,11.20
2022-09-29T13:34:56.285Z,11.00
2022-09-29T13:37:25.866Z,11.00
2022-09-29T13:39:59.496Z,11.20
2022-09-29T13:42:41.199Z,11.10
2022-09-29T13:45:16.649Z,11.00
2022-09-29T13:47:50.697Z,11.10
2022-09-29T13:50:37.206Z,11.10
2022-09-29T13:53:20.110Z,11.00
2022-09-29T13:55:52.255Z,10.90
2022-09-29T13:58:24.485Z,10.90
2022-09-29T14:00:52.742Z,10.90
2022-09-29T14:03:34.515Z,10.90
2022-09-29T14:06:28.862Z,10.80
2022-09-29T14:09:00.886Z,10.80
2022-09-29T14:11:31.281Z,10.90
2022-09-29T14:14:01.594Z,10.80
2022-09-29T14:16:47.788Z,11.00
2022-09-29T14:19:26.659Z,10.90
2022-09-29T14:21:55.655Z,10.80
2022-09-29T14:24:43.038Z,10.80
2022-09-29T14:27:32.106Z,10.80
2022-09-29T14:30:12.461Z,10.70
2022-09-29T14:32:42.554Z,10.70
2022-09-29T14:35:20.974Z,10.70
2022-09-29T14:37:52.259Z,10.70
2022-09-29T14:40:29.806Z,10.50
2022-09-29T14:43:07.884Z,10.60
2022-09-29T14:45:59.212Z,10.70
2022-09-29T14:48:47.448Z,10.60
2022-09-29T14:51:36.383Z,10.50
2022-09-29T14:54:08.601Z,10.70
2022-09-29T14:56:47.242Z,10.70
2022-09-29T14:59:21.257Z,10.60
2022-09-29T15:02:12.623Z,10.50
2022-09-29T15:04:40.979Z,10.50
2022-09-29T15:07:12.447Z,10.40
2022-09-29T15:09:40.986Z,10.50
2022-09-29T15:23:23.771Z,10.50
2022-09-29T15:25:55.690Z,10.40
2022-09-29T15:39:46.499Z,10.40
2022-09-29T15:42:16.518Z,10.30
2022-09-29T15:44:49.141Z,10.30
2022-09-29T15:47:22.515Z,10.40
2022-09-29T15:49:51.905Z,10.30
2022-09-29T15:52:23.717Z,10.30
2022-09-29T15:54:57.125Z,10.30
2022-09-29T15:57:47.368Z,10.30
2022-09-29T16:00:34.494Z,10.40
2022-09-29T16:03:05.292Z,10.20
2022-09-29T16:05:35.511Z,10.20
2022-09-29T16:08:04.676Z,10.20
2022-09-29T16:10:35.393Z,10.20
2022-09-29T16:13:05.725Z,10.10
2022-09-29T16:15:34.606Z,10.10
2022-09-29T16:18:04.677Z,10.10
2022-09-29T16:20:33.906Z,10.10
2022-09-29T16:23:07.925Z,10.10
2022-09-29T16:25:37.469Z,10.10
2022-09-29T16:28:11.298Z,10.00
2022-09-29T16:30:39.832Z,10.10
2022-09-29T16:33:14.434Z,10.00
2022-09-29T16:35:57.518Z,10.00
2022-09-29T16:38:33.366Z,10.00
2022-09-29T16:41:09.558Z,9.90
2022-09-29T16:43:42.180Z,9.90
2022-09-29T16:46:11.607Z,10.00
2022-09-29T16:48:41.477Z,9.90
2022-09-29T16:51:27.723Z,10.00
2022-09-29T16:54:00.356Z,9.90
2022-09-29T16:56:32.310Z,9.90
2022-09-29T16:59:04.511Z,9.90
2022-09-29T17:01:32.880Z,10.00
2022-09-29T17:04:00.965Z,10.00
2022-09-29T17:06:31.077Z,10.10
2022-09-29T17:08:59.542Z,10.00
2022-09-29T17:11:29.064Z,9.90
2022-09-29T17:14:00.152Z,9.90
2022-09-29T17:16:29.838Z,9.90
2022-09-29T17:19:01.263Z,9.90
2022-09-29T17:21:32.125Z,9.90
2022-09-29T17:24:03.826Z,9.90
2022-09-29T17:26:53.586Z,9.90
2022-09-29T17:29:33.637Z,9.80
2022-09-29T17:32:15.653Z,9.80
2022-09-29T17:34:47.206Z,9.90
2022-09-29T17:37:27.315Z,9.90
2022-09-29T17:39:57.154Z,9.80
2022-09-29T17:42:27.181Z,9.80
2022-09-29T17:44:59.508Z,9.80
2022-09-29T17:47:29.271Z,9.80
2022-09-29T17:50:01.358Z,9.80
2022-09-29T17:52:29.630Z,9.80
2022-09-29T17:54:59.614Z,9.80
2022-09-29T17:57:43.382Z,9.80
2022-09-29T18:00:15.129Z,9.80
2022-09-29T18:02:43.600Z,9.80
2022-09-29T18:05:12.119Z,9.80
2022-09-29T18:07:40.238Z,9.80
2022-09-29T18:10:18.428Z,9.80
2022-09-29T18:12:51.310Z,9.80
2022-09-29T18:15:19.417Z,9.80
2022-09-29T18:17:49.214Z,9.80
2022-09-29T18:20:18.530Z,9.80
2022-09-29T18:23:02.715Z,9.80
2022-09-29T18:25:31.841Z,9.80
2022-09-29T18:28:02.068Z,9.80
2022-09-29T18:30:31.360Z,9.70
2022-09-29T18:33:03.120Z,9.70
2022-09-29T18:35:32.764Z,9.70
2022-09-29T18:38:01.719Z,9.70
2022-09-29T18:40:32.602Z,9.70
2022-09-29T18:43:03.514Z,9.70
2022-09-29T18:45:35.050Z,9.70
2022-09-29T18:48:04.859Z,9.70
2022-09-29T18:50:33.943Z,9.70
2022-09-29T18:53:02.880Z,9.70
2022-09-29T18:55:31.957Z,9.70
2022-09-29T18:58:03.275Z,9.60
2022-09-29T19:00:35.570Z,9.60
2022-09-29T19:03:05.306Z,9.60
2022-09-29T19:05:34.333Z,9.60
2022-09-29T19:08:03.498Z,9.60
2022-09-29T19:10:35.399Z,9.60
2022-09-29T19:13:08.488Z,9.60
2022-09-29T19:15:40.262Z,9.60
2022-09-29T19:18:09.274Z,9.60
2022-09-29T19:20:40.402Z,9.60
2022-09-29T19:23:08.725Z,9.60
2022-09-29T19:25:38.498Z,9.60
2022-09-29T19:28:07.453Z,9.50
2022-09-29T19:30:37.118Z,9.50
2022-09-29T19:33:13.083Z,9.50
2022-09-29T19:35:44.804Z,9.60
2022-09-29T19:38:13.585Z,9.50
2022-09-29T19:40:46.830Z,9.50
2022-09-29T19:43:15.007Z,9.50
2022-09-29T19:45:43.988Z,9.50
2022-09-29T19:48:16.765Z,9.40
2022-09-29T19:51:05.778Z,9.50
2022-09-29T19:53:38.059Z,9.50
2022-09-29T19:56:08.744Z,9.50
2022-09-29T19:58:38.624Z,9.50
2022-09-29T20:01:09.282Z,9.50
2022-09-29T20:03:38.719Z,9.50
2022-09-29T20:06:07.592Z,9.50
2022-09-29T20:08:36.075Z,9.50
2022-09-29T20:11:08.402Z,9.60
2022-09-29T20:13:36.438Z,9.60
2022-09-29T20:16:06.064Z,9.50
2022-09-29T20:18:35.128Z,9.50
2022-09-29T20:21:08.157Z,9.50
2022-09-29T20:23:39.319Z,9.50
2022-09-29T20:26:09.135Z,9.50
2022-09-29T20:28:37.635Z,9.50
2022-09-29T20:31:07.766Z,9.50
2022-09-29T20:33:36.467Z,9.50
2022-09-29T20:36:05.151Z,9.40
2022-09-29T20:38:36.030Z,9.40
2022-09-29T20:41:04.515Z,9.40
2022-09-29T20:43:34.667Z,9.40
2022-09-29T20:46:04.440Z,9.40
2022-09-29T20:48:32.749Z,9.40
2022-09-29T20:51:01.404Z,9.40
2022-09-29T20:53:29.978Z,9.40
2022-09-29T20:56:06.113Z,9.40
2022-09-29T20:58:34.987Z,9.40
2022-09-29T21:01:10.835Z,9.40
2022-09-29T21:03:38.894Z,9.40
2022-09-29T21:06:07.142Z,9.40
2022-09-29T21:08:35.239Z,9.40
2022-09-29T21:11:06.367Z,9.40
2022-09-29T21:13:37.403Z,9.40
2022-09-29T21:16:05.768Z,9.30
2022-09-29T21:18:34.421Z,9.40
2022-09-29T21:21:03.167Z,9.40
2022-09-29T21:23:32.023Z,9.40
2022-09-29T21:26:00.961Z,9.40
2022-09-29T21:28:30.493Z,9.40
2022-09-29T21:31:02.688Z,9.50
2022-09-29T21:33:30.803Z,9.40
2022-09-29T21:35:59.434Z,9.40
2022-09-29T21:38:30.307Z,9.40
2022-09-29T21:41:05.248Z,9.40
2022-09-29T21:43:35.746Z,9.40
2022-09-29T21:46:04.779Z,9.50
2022-09-29T21:48:34.727Z,9.50
2022-09-29T21:51:06.859Z,9.50
2022-09-29T21:53:35.935Z,9.50
2022-09-29T21:56:05.303Z,9.40
2022-09-29T21:58:34.803Z,9.40
2022-09-29T22:01:03.779Z,9.40
2022-09-29T22:03:35.121Z,9.40
2022-09-29T22:06:03.954Z,9.40
2022-09-29T22:08:32.395Z,9.50
2022-09-29T22:11:00.597Z,9.50
2022-09-29T22:13:30.350Z,9.50
2022-09-29T22:16:04.623Z,9.50
2022-09-29T22:18:41.171Z,9.50
2022-09-29T22:21:10.624Z,9.40
2022-09-29T22:23:38.973Z,9.40
2022-09-29T22:26:10.595Z,9.40
2022-09-29T22:28:38.654Z,9.30
2022-09-29T22:31:10.034Z,9.30
2022-09-29T22:33:38.477Z,9.30
2022-09-29T22:36:06.963Z,9.30
2022-09-29T22:38:36.075Z,9.40
2022-09-29T22:41:08.123Z,9.30
2022-09-29T22:43:36.317Z,9.30
2022-09-29T22:46:04.409Z,9.20
2022-09-29T22:48:33.973Z,9.10
2022-09-29T22:51:02.277Z,9.00
2022-09-29T22:53:30.300Z,8.90
2022-09-29T22:55:58.867Z,8.80
2022-09-29T22:58:30.099Z,8.70
2022-09-29T23:01:05.184Z,8.30
2022-09-29T23:03:34.720Z,8.30
2022-09-29T23:06:03.330Z,8.30
2022-09-29T23:08:32.358Z,8.30
2022-09-29T23:11:01.891Z,8.40
2022-09-29T23:13:29.955Z,8.50
2022-09-29T23:16:02.104Z,8.50
2022-09-29T23:18:32.440Z,8.30
2022-09-29T23:21:02.915Z,8.40
2022-09-29T23:23:32.059Z,8.30
2022-09-29T23:26:00.392Z,8.50
2022-09-29T23:28:28.798Z,8.50
2022-09-29T23:30:59.877Z,8.50
2022-09-29T23:33:31.277Z,8.50
2022-09-29T23:36:07.347Z,8.50
2022-09-29T23:38:53.027Z,8.40
2022-09-29T23:41:21.279Z,8.40
2022-09-29T23:43:49.311Z,8.30
2022-09-29T23:46:17.599Z,8.30
2022-09-29T23:48:45.695Z,8.40
2022-09-29T23:51:15.243Z,8.30
2022-09-29T23:53:43.718Z,8.40
2022-09-29T23:56:11.905Z,8.40
2022-09-29T23:58:40.083Z,8.40
